IAH weather

George Bush Intercontinental Houston Airport
Houston, Texas, United States

Public forecast

Using degrees Fahrenheit for public forecast. Weather courtesy of forecast.io.

Current aviation weather report (METAR) for George Bush Intercontinental Houston Airport

Retrieved 2019/10/17 04:53 UTC (25 minutes ago):

KIAH 170453Z 36005KT 10SM FEW050 FEW250 16/12 A3008 RMK AO2 SLP186 T01560122

Aviation forecast (TAF) for George Bush Intercontinental Houston Airport

Retrieved 2019-10-17 00:22 UTC (5 hours ago):

TAF KIAH 162320Z 1700/1806 35009KT P6SM FEW015 BKN025 OVC040 FM170100 01007KT P6SM BKN040 FM170300 01006KT P6SM SCT040 BKN090 FM171500 06007KT P6SM BKN250